Time;durP1;ratioP1;P1;durP2;ratioP2;P2;SDS_P1;SDS_P2;PMS_P1;PMS_P2;Temp;Humidity;BMP_temperature;BMP_pressure;BME280_temperature;BME280_humidity;BME280_pressure;Samples;Min_cycle;Max_cycle;Signal;HPM_P1;HPM_P2
2022/01/19 00:01:20;;;;;;;5.50;2.33;;;6.70;99.90;;;;;;4992215;28;20222;-77
2022/01/19 00:03:46;;;;;;;3.57;2.03;;;6.70;99.90;;;;;;4993407;28;20167;-77
2022/01/19 00:06:12;;;;;;;6.53;2.03;;;6.70;99.90;;;;;;4994007;28;20167;-76
2022/01/19 00:08:38;;;;;;;3.50;2.35;;;6.70;99.90;;;;;;4992664;28;20362;-77
2022/01/19 00:11:04;;;;;;;3.28;2.45;;;6.60;99.90;;;;;;4992614;28;20254;-77
2022/01/19 00:13:30;;;;;;;3.73;2.30;;;6.60;99.90;;;;;;4992781;28;20266;-77
2022/01/19 00:15:56;;;;;;;2.67;2.20;;;6.60;99.90;;;;;;4994053;28;20582;-77
2022/01/19 00:18:24;;;;;;;3.33;2.30;;;6.60;99.90;;;;;;4993874;28;20658;-78
2022/01/19 00:20:51;;;;;;;3.78;2.80;;;6.60;99.90;;;;;;4992498;28;20566;-77
2022/01/19 00:23:18;;;;;;;2.47;2.03;;;6.60;99.90;;;;;;4993915;28;20221;-77
2022/01/19 00:25:46;;;;;;;2.92;2.40;;;6.60;99.90;;;;;;4993878;28;20163;-77
2022/01/19 00:28:12;;;;;;;4.47;1.92;;;6.60;99.90;;;;;;4993856;28;20202;-77
2022/01/19 00:30:39;;;;;;;3.65;2.20;;;6.50;99.90;;;;;;4993402;28;20168;-77
2022/01/19 00:33:05;;;;;;;3.40;2.25;;;6.50;99.90;;;;;;4992643;28;20326;-77
2022/01/19 00:35:35;;;;;;;2.90;1.85;;;6.50;99.90;;;;;;4992531;28;20248;-77
2022/01/19 00:38:02;;;;;;;2.78;2.47;;;6.50;99.90;;;;;;4992432;28;20741;-77
2022/01/19 00:40:29;;;;;;;5.70;2.70;;;6.50;99.90;;;;;;4993357;28;20167;-77
2022/01/19 00:42:56;;;;;;;3.78;2.83;;;6.50;99.90;;;;;;4992364;28;20168;-78
2022/01/19 00:45:22;;;;;;;2.65;2.38;;;6.50;99.90;;;;;;4994975;28;20163;-79
2022/01/19 00:47:48;;;;;;;3.13;2.83;;;6.50;99.90;;;;;;4993422;28;20368;-78
2022/01/19 00:50:18;;;;;;;2.65;2.45;;;6.50;99.90;;;;;;4991907;28;20570;-78
2022/01/19 00:52:44;;;;;;;2.70;2.50;;;6.50;99.90;;;;;;4992311;28;20174;-79
2022/01/19 00:55:11;;;;;;;3.30;2.80;;;6.50;99.90;;;;;;4992127;28;20174;-79
2022/01/19 00:57:37;;;;;;;2.13;1.88;;;6.50;99.90;;;;;;4991933;28;20218;-78
2022/01/19 01:00:12;;;;;;;2.73;2.17;;;6.40;99.90;;;;;;4991443;28;20639;-78
2022/01/19 01:02:38;;;;;;;2.47;2.10;;;6.50;99.90;;;;;;4992085;28;20572;-78
2022/01/19 01:05:04;;;;;;;2.67;2.10;;;6.40;99.90;;;;;;4992321;28;20578;-78
2022/01/19 01:07:33;;;;;;;3.70;1.60;;;6.40;99.90;;;;;;4994410;28;20207;-78
2022/01/19 01:09:59;;;;;;;2.00;1.80;;;6.40;99.90;;;;;;4993786;28;20171;-78
2022/01/19 01:12:41;;;;;;;2.17;1.83;;;6.40;99.90;;;;;;4991761;28;20305;-78
2022/01/19 01:15:30;;;;;;;2.63;2.35;;;6.40;99.90;;;;;;4991534;28;20174;-78
2022/01/19 01:20:33;;;;;;;1.98;1.60;;;6.40;99.90;;;;;;4992400;28;20174;-78
2022/01/19 01:23:00;;;;;;;2.22;1.55;;;6.40;99.90;;;;;;4994732;28;20171;-85
2022/01/19 01:25:26;;;;;;;3.40;2.10;;;6.40;99.90;;;;;;4992973;28;20179;-85
2022/01/19 01:27:52;;;;;;;2.30;1.77;;;6.30;99.90;;;;;;4993278;28;20678;-85
2022/01/19 01:30:19;;;;;;;4.45;2.40;;;6.40;99.90;;;;;;4976907;28;21329;-85
2022/01/19 01:32:46;;;;;;;2.63;1.85;;;6.40;99.90;;;;;;4992981;28;20253;-86
2022/01/19 01:35:12;;;;;;;3.72;2.17;;;6.40;99.90;;;;;;4992871;28;20584;-85
2022/01/19 01:37:38;;;;;;;2.60;2.00;;;6.50;99.90;;;;;;4992736;28;20206;-85
2022/01/19 01:40:05;;;;;;;3.13;2.83;;;6.50;99.90;;;;;;4992605;28;20665;-85
2022/01/19 01:42:32;;;;;;;2.45;2.25;;;6.60;99.90;;;;;;4992080;28;20167;-77
2022/01/19 01:45:01;;;;;;;2.45;2.17;;;6.60;99.90;;;;;;4991346;28;20190;-77
2022/01/19 01:47:29;;;;;;;3.35;2.60;;;6.60;99.90;;;;;;4991098;28;20221;-77
2022/01/19 01:55:19;;;;;;;3.60;3.30;;;6.80;99.90;;;;;;4991269;28;20212;-77
2022/01/19 01:57:45;;;;;;;3.28;2.97;;;6.80;99.90;;;;;;4990997;28;20203;-77
2022/01/19 02:00:15;;;;;;;3.30;3.05;;;6.80;99.90;;;;;;4990782;28;20543;-77
2022/01/19 02:02:46;;;;;;;3.83;3.42;;;6.90;99.90;;;;;;4992473;28;20162;-77
2022/01/19 02:05:14;;;;;;;6.95;4.15;;;6.90;99.90;;;;;;4991141;28;20179;-77
2022/01/19 02:07:49;;;;;;;5.82;4.10;;;6.90;99.90;;;;;;4990925;28;20302;-77
2022/01/19 02:10:33;;;;;;;3.72;3.42;;;6.90;99.90;;;;;;4974406;28;20175;-76
2022/01/19 02:16:15;;;;;;;4.57;4.18;;;7.00;99.90;;;;;;4990903;28;20181;-77
2022/01/19 02:24:05;;;;;;;4.40;3.97;;;7.10;99.90;;;;;;4974720;28;20173;-76
2022/01/19 02:42:39;;;;;;;3.72;3.42;;;7.40;99.90;;;;;;4995903;28;20202;-77
2022/01/19 02:49:58;;;;;;;4.37;3.10;;;7.50;99.90;;;;;;5019775;22;20199;-80
2022/01/19 02:52:24;;;;;;;3.10;2.80;;;7.50;99.90;;;;;;5015721;28;20175;-80
2022/01/19 02:54:51;;;;;;;4.10;3.78;;;7.50;99.90;;;;;;5014049;28;20691;-80
2022/01/19 02:57:20;;;;;;;3.95;3.60;;;7.50;99.90;;;;;;5005985;28;20296;-80
2022/01/19 03:10:37;;;;;;;3.90;3.20;;;7.50;99.90;;;;;;5007221;28;20205;-81
2022/01/19 03:13:04;;;;;;;5.53;4.82;;;7.40;99.90;;;;;;4995295;28;20209;-81
2022/01/19 03:15:30;;;;;;;4.33;3.93;;;7.30;99.90;;;;;;5005613;28;20206;-80
2022/01/19 03:17:58;;;;;;;3.30;3.00;;;7.30;99.90;;;;;;5008736;28;20642;-80
2022/01/19 03:20:25;;;;;;;3.75;3.45;;;7.30;99.90;;;;;;5009216;28;21068;-81
2022/01/19 03:23:02;;;;;;;3.20;2.90;;;7.30;99.90;;;;;;5015828;28;20230;-81
2022/01/19 03:25:28;;;;;;;3.38;3.17;;;7.30;99.90;;;;;;4997496;28;20221;-81
2022/01/19 03:27:54;;;;;;;3.37;3.13;;;7.40;99.90;;;;;;4997111;28;20592;-81
2022/01/19 03:30:21;;;;;;;3.27;2.97;;;7.40;99.90;;;;;;5013057;28;20608;-82
2022/01/19 03:32:47;;;;;;;3.05;2.85;;;7.50;99.90;;;;;;5013462;28;20948;-81
2022/01/19 03:35:14;;;;;;;2.93;2.70;;;7.50;99.90;;;;;;5014784;28;20170;-82
2022/01/19 03:37:41;;;;;;;3.33;2.70;;;7.60;99.90;;;;;;5012832;28;20630;-81
2022/01/19 03:40:08;;;;;;;3.90;2.92;;;7.60;99.90;;;;;;5013299;28;20776;-81
2022/01/19 03:42:34;;;;;;;3.88;3.50;;;7.70;99.90;;;;;;4997347;28;20242;-82
2022/01/19 03:45:01;;;;;;;3.05;2.83;;;7.80;99.90;;;;;;5013270;28;20170;-82
2022/01/19 03:47:27;;;;;;;3.15;2.85;;;7.80;99.90;;;;;;5013365;28;20174;-82
2022/01/19 03:49:54;;;;;;;3.80;3.40;;;7.80;99.90;;;;;;5012716;28;20824;-82
2022/01/19 03:52:20;;;;;;;3.78;3.47;;;7.90;99.90;;;;;;5013487;28;20196;-82
2022/01/19 03:54:46;;;;;;;3.53;3.23;;;7.90;99.90;;;;;;4997362;28;20730;-82
2022/01/19 03:57:13;;;;;;;5.18;2.95;;;7.90;99.90;;;;;;5013287;28;20628;-82
2022/01/19 03:59:39;;;;;;;3.65;3.35;;;7.90;99.90;;;;;;5015101;28;20177;-82
2022/01/19 04:02:06;;;;;;;3.38;3.08;;;7.90;99.90;;;;;;5001676;28;20198;-82
2022/01/19 04:09:30;;;;;;;2.53;2.33;;;7.80;99.90;;;;;;5014178;28;20200;-82
2022/01/19 04:11:56;;;;;;;2.60;2.40;;;7.70;99.90;;;;;;4996150;28;20666;-82
2022/01/19 04:14:23;;;;;;;2.55;2.35;;;7.60;99.90;;;;;;5012917;28;20186;-82
2022/01/19 04:16:51;;;;;;;2.15;1.95;;;7.60;99.90;;;;;;5012695;28;20194;-82
2022/01/19 04:19:32;;;;;;;3.05;2.78;;;7.60;99.90;;;;;;5012741;28;20219;-82
2022/01/19 04:22:05;;;;;;;3.80;2.35;;;7.60;99.90;;;;;;5012473;28;20204;-81
2022/01/19 04:24:34;;;;;;;2.15;1.95;;;7.60;99.90;;;;;;5012746;28;20174;-82
2022/01/19 04:29:56;;;;;;;2.95;1.55;;;7.60;99.90;;;;;;5012555;28;20170;-82
2022/01/19 04:32:30;;;;;;;2.30;1.88;;;7.60;99.90;;;;;;5013393;28;20179;-82
2022/01/19 04:34:56;;;;;;;2.33;1.60;;;7.60;99.90;;;;;;4996468;28;20201;-82
2022/01/19 04:37:34;;;;;;;2.53;1.47;;;7.60;99.90;;;;;;5018631;28;20209;-82
2022/01/19 05:01:56;;;;;;;3.22;2.40;;;7.80;99.90;;;;;;5012064;28;20619;-82
2022/01/19 05:04:49;;;;;;;2.20;2.00;;;7.80;99.90;;;;;;5012676;28;20182;-82
2022/01/19 05:15:22;;;;;;;1.30;1.10;;;7.80;99.90;;;;;;5016581;28;20185;-81
2022/01/19 05:17:48;;;;;;;2.70;1.37;;;7.70;99.90;;;;;;5011704;28;20561;-81
2022/01/19 05:20:14;;;;;;;1.30;1.00;;;7.70;99.90;;;;;;5012363;28;20247;-82
2022/01/19 05:22:40;;;;;;;1.30;0.80;;;7.60;99.90;;;;;;4994979;28;20206;-82
2022/01/19 05:25:13;;;;;;;1.83;1.30;;;7.60;99.90;;;;;;4996154;28;20166;-82
2022/01/19 05:27:48;;;;;;;1.80;1.17;;;7.60;99.90;;;;;;5013024;28;20243;-81
2022/01/19 05:30:17;;;;;;;1.73;1.20;;;7.60;99.90;;;;;;5010941;28;20276;-81
2022/01/19 05:32:44;;;;;;;2.88;1.40;;;7.60;99.90;;;;;;5011226;28;20217;-81
2022/01/19 05:35:10;;;;;;;1.50;1.33;;;7.60;99.90;;;;;;5011368;28;20166;-81
2022/01/19 05:37:46;;;;;;;1.95;1.20;;;7.60;99.90;;;;;;4994761;28;20205;-81
2022/01/19 05:40:27;;;;;;;1.42;1.33;;;7.60;99.90;;;;;;4996528;28;20197;-81
2022/01/19 05:42:55;;;;;;;3.10;1.40;;;7.60;99.90;;;;;;4979042;28;20217;-81
2022/01/19 05:45:21;;;;;;;1.30;1.02;;;7.60;99.90;;;;;;5012342;28;20180;-81
2022/01/19 05:47:48;;;;;;;1.50;1.10;;;7.60;99.90;;;;;;5011293;28;20917;-81
2022/01/19 05:50:14;;;;;;;1.33;1.05;;;7.60;99.90;;;;;;5011719;28;20194;-82
2022/01/19 05:52:40;;;;;;;2.40;1.10;;;7.60;99.90;;;;;;5016079;28;20649;-81
2022/01/19 05:55:07;;;;;;;1.50;1.23;;;7.60;99.90;;;;;;5011122;28;20174;-81
2022/01/19 05:57:34;;;;;;;1.70;1.17;;;7.60;99.90;;;;;;4994506;28;20218;-81
2022/01/19 06:00:01;;;;;;;1.50;1.15;;;7.60;99.90;;;;;;5010429;28;20193;-80
2022/01/19 06:02:29;;;;;;;1.75;1.30;;;7.60;99.90;;;;;;4995112;28;20175;-81
2022/01/19 06:04:55;;;;;;;2.20;1.40;;;7.60;99.90;;;;;;5010818;28;20174;-80
2022/01/19 06:07:42;;;;;;;1.60;1.00;;;7.70;99.90;;;;;;4994596;28;20620;-81
2022/01/19 06:10:43;;;;;;;4.55;1.70;;;7.80;99.90;;;;;;5010331;28;20198;-81
2022/01/19 06:13:11;;;;;;;2.53;1.50;;;7.80;99.90;;;;;;4994714;28;20182;-81
2022/01/19 06:15:37;;;;;;;1.60;1.27;;;7.80;99.90;;;;;;5010795;28;20193;-81
2022/01/19 06:18:03;;;;;;;2.50;1.40;;;7.80;99.90;;;;;;5010905;28;20198;-81
2022/01/19 06:20:29;;;;;;;1.60;1.30;;;7.80;99.90;;;;;;5010375;28;20603;-80
2022/01/19 06:22:55;;;;;;;1.40;1.27;;;7.90;99.90;;;;;;5010654;28;20570;-80
2022/01/19 06:25:21;;;;;;;1.50;1.30;;;7.90;99.90;;;;;;4994403;28;20170;-81
2022/01/19 06:27:47;;;;;;;2.60;1.25;;;8.00;99.90;;;;;;5010938;28;20595;-81
2022/01/19 06:30:14;;;;;;;2.23;1.00;;;8.00;99.90;;;;;;5014614;28;20190;-81
2022/01/19 06:32:41;;;;;;;2.25;1.55;;;8.00;99.90;;;;;;4994280;28;20182;-81
2022/01/19 06:35:08;;;;;;;1.50;1.25;;;8.00;99.90;;;;;;5010666;28;20177;-80
2022/01/19 06:37:48;;;;;;;1.50;1.15;;;8.00;99.90;;;;;;4994057;28;20657;-81
2022/01/19 06:40:25;;;;;;;1.80;1.65;;;8.00;99.90;;;;;;4994669;28;20240;-81
2022/01/19 06:42:53;;;;;;;1.95;1.30;;;8.00;99.90;;;;;;5010861;28;20171;-81
2022/01/19 06:45:20;;;;;;;1.60;1.48;;;8.00;99.90;;;;;;5002298;28;20174;-80
2022/01/19 06:47:46;;;;;;;1.65;1.38;;;7.90;99.90;;;;;;4990666;28;20251;-81
2022/01/19 06:50:12;;;;;;;2.03;1.40;;;8.00;99.90;;;;;;4983505;28;20259;-81
2022/01/19 06:52:41;;;;;;;2.67;1.67;;;7.90;99.90;;;;;;4971304;28;20649;-81
2022/01/19 06:55:08;;;;;;;2.05;1.85;;;7.90;99.90;;;;;;4987086;28;20190;-82
2022/01/19 06:57:34;;;;;;;3.88;2.70;;;8.00;99.90;;;;;;4990664;28;20206;-81
2022/01/19 07:00:18;;;;;;;3.00;2.45;;;8.00;99.90;;;;;;4991182;28;20186;-80
2022/01/19 07:03:03;;;;;;;2.75;2.55;;;7.90;99.90;;;;;;4992052;28;20163;-80
2022/01/19 07:05:48;;;;;;;2.55;2.33;;;7.90;99.90;;;;;;4995215;28;20171;-80
2022/01/19 07:08:32;;;;;;;3.05;2.65;;;7.90;99.90;;;;;;4990519;28;20306;-80
2022/01/19 07:10:58;;;;;;;2.53;2.25;;;7.90;99.90;;;;;;4990071;28;20223;-80
2022/01/19 07:13:24;;;;;;;2.50;2.30;;;7.90;99.90;;;;;;4993203;28;20233;-80
2022/01/19 07:15:50;;;;;;;3.23;3.00;;;8.00;99.90;;;;;;4993568;28;20697;-79
2022/01/19 07:18:15;;;;;;;3.27;2.93;;;8.00;99.90;;;;;;4993669;28;20199;-80
2022/01/19 07:20:41;;;;;;;3.07;2.87;;;8.00;99.90;;;;;;4993455;28;20613;-80
2022/01/19 07:23:08;;;;;;;2.58;2.20;;;8.00;99.90;;;;;;4993601;28;20577;-80
2022/01/19 07:25:34;;;;;;;2.93;2.63;;;8.10;99.90;;;;;;4977421;28;20731;-79
2022/01/19 07:28:00;;;;;;;2.47;2.28;;;8.10;99.90;;;;;;4977713;28;20170;-79
2022/01/19 07:30:28;;;;;;;3.13;2.88;;;8.10;99.90;;;;;;4992969;28;20201;-79
2022/01/19 07:32:54;;;;;;;2.80;2.60;;;8.10;99.90;;;;;;4977213;28;20210;-80
2022/01/19 07:35:21;;;;;;;3.05;2.60;;;8.20;99.90;;;;;;4993745;28;20219;-80
2022/01/19 07:37:50;;;;;;;2.70;2.50;;;8.20;99.90;;;;;;4993235;28;20203;-80
2022/01/19 07:40:17;;;;;;;2.80;2.60;;;8.20;99.90;;;;;;4982524;28;20225;-81
2022/01/19 07:42:44;;;;;;;9.50;3.25;;;8.20;99.90;;;;;;4975458;28;20170;-78
2022/01/19 07:45:33;;;;;;;3.30;3.00;;;8.30;99.90;;;;;;4978187;28;20226;-78
2022/01/19 07:48:28;;;;;;;2.78;2.55;;;8.30;99.90;;;;;;4938766;28;20214;-79
2022/01/19 07:51:11;;;;;;;2.92;2.50;;;8.30;99.90;;;;;;5003426;28;20743;-78
2022/01/19 07:53:43;;;;;;;2.97;2.72;;;8.30;99.90;;;;;;4969637;28;20677;-78
2022/01/19 07:56:32;;;;;;;2.78;2.58;;;8.30;99.90;;;;;;4994424;28;20574;-79
2022/01/19 07:59:24;;;;;;;3.50;2.92;;;8.30;99.90;;;;;;4987320;28;20200;-78
2022/01/19 08:01:59;;;;;;;2.88;2.67;;;8.30;99.90;;;;;;4972318;28;20187;-79
2022/01/19 08:05:03;;;;;;;3.22;2.92;;;8.30;99.90;;;;;;4973992;28;20593;-78
2022/01/19 08:07:32;;;;;;;2.88;2.67;;;8.30;99.90;;;;;;4972622;28;20202;-80
2022/01/19 08:09:59;;;;;;;3.10;2.90;;;8.40;99.90;;;;;;4988344;28;20202;-80
2022/01/19 08:12:25;;;;;;;3.30;2.80;;;8.40;99.90;;;;;;4957439;28;20226;-80
2022/01/19 08:14:51;;;;;;;3.37;3.07;;;8.40;99.90;;;;;;4989669;28;20175;-80
2022/01/19 08:17:26;;;;;;;2.80;2.60;;;8.40;99.90;;;;;;4958427;28;20613;-79
2022/01/19 08:19:54;;;;;;;3.38;3.08;;;8.40;99.90;;;;;;4990419;28;20255;-79
2022/01/19 08:22:20;;;;;;;3.15;2.55;;;8.40;99.90;;;;;;4992355;28;20179;-80
2022/01/19 08:25:05;;;;;;;3.35;3.05;;;8.40;99.90;;;;;;4993169;28;20171;-79
2022/01/19 08:27:31;;;;;;;2.70;2.50;;;8.40;99.90;;;;;;4992463;28;20206;-80
2022/01/19 08:30:01;;;;;;;3.05;2.83;;;8.40;99.90;;;;;;4991982;28;20233;-79
2022/01/19 08:32:27;;;;;;;3.63;3.30;;;8.50;99.90;;;;;;4992327;28;20261;-79
2022/01/19 08:35:15;;;;;;;3.47;3.17;;;8.40;99.90;;;;;;4993830;28;20173;-79
2022/01/19 08:37:59;;;;;;;3.30;2.95;;;8.50;99.90;;;;;;4992135;28;20203;-79
2022/01/19 08:40:29;;;;;;;3.20;2.90;;;8.50;99.90;;;;;;4991197;28;20199;-80
2022/01/19 08:43:08;;;;;;;5.35;2.90;;;8.50;99.90;;;;;;4991512;28;20592;-79
2022/01/19 08:45:35;;;;;;;5.63;3.27;;;8.50;99.90;;;;;;4975940;28;20267;-80
2022/01/19 08:48:02;;;;;;;4.70;3.00;;;8.50;99.90;;;;;;4992092;28;20175;-80
2022/01/19 08:50:46;;;;;;;6.07;4.18;;;8.50;99.90;;;;;;4991983;28;20207;-80
2022/01/19 08:53:51;;;;;;;3.17;2.92;;;8.50;99.90;;;;;;4957521;28;20575;-80
2022/01/19 08:56:37;;;;;;;4.45;3.20;;;8.50;99.90;;;;;;4957930;28;20176;-80
2022/01/19 08:59:03;;;;;;;3.87;3.47;;;8.50;99.90;;;;;;4978327;28;20216;-79
2022/01/19 09:01:29;;;;;;;4.43;3.78;;;8.50;99.90;;;;;;4973595;28;20642;-79
2022/01/19 09:03:55;;;;;;;4.40;3.33;;;8.60;99.90;;;;;;4974589;28;20211;-79
2022/01/19 09:06:21;;;;;;;4.10;3.70;;;8.50;99.90;;;;;;4974347;28;20168;-78
2022/01/19 09:08:47;;;;;;;4.67;3.97;;;8.50;99.90;;;;;;4980120;28;20172;-79
2022/01/19 09:11:12;;;;;;;4.90;4.40;;;8.50;99.90;;;;;;4982222;28;20619;-79
2022/01/19 09:13:39;;;;;;;4.83;4.40;;;8.50;99.90;;;;;;4987647;28;20182;-79
2022/01/19 09:16:06;;;;;;;5.28;4.78;;;8.50;99.90;;;;;;4984716;28;20243;-79
2022/01/19 09:18:31;;;;;;;4.88;4.47;;;8.50;99.90;;;;;;4983693;28;20204;-79
2022/01/19 09:20:57;;;;;;;4.93;4.53;;;8.50;99.90;;;;;;4983277;28;20684;-79
2022/01/19 09:23:23;;;;;;;6.20;5.60;;;8.40;99.90;;;;;;4996145;28;20586;-79
2022/01/19 09:25:49;;;;;;;7.83;6.60;;;8.40;99.90;;;;;;4993231;28;20197;-79
2022/01/19 09:28:15;;;;;;;5.07;4.57;;;8.40;99.90;;;;;;4993144;28;20729;-79
2022/01/19 09:30:41;;;;;;;4.68;4.28;;;8.40;99.90;;;;;;4993073;28;20614;-80
2022/01/19 09:33:10;;;;;;;5.22;4.72;;;8.30;99.90;;;;;;4964679;28;20171;-79
2022/01/19 09:38:28;;;;;;;6.18;5.55;;;8.40;99.90;;;;;;4993527;28;20195;-79
2022/01/19 09:40:54;;;;;;;6.25;5.65;;;8.40;99.90;;;;;;4986596;28;20183;-79
2022/01/19 09:44:24;;;;;;;4.63;4.25;;;8.40;99.90;;;;;;4987264;28;20532;-78
2022/01/19 09:46:50;;;;;;;5.75;5.25;;;8.40;99.90;;;;;;4839008;29;20175;-79
2022/01/19 09:49:18;;;;;;;5.55;5.15;;;8.50;99.90;;;;;;4944328;28;20644;-79
2022/01/19 09:51:45;;;;;;;7.57;6.88;;;8.50;99.90;;;;;;4986228;28;20302;-79
2022/01/19 09:54:17;;;;;;;7.70;7.03;;;8.60;99.90;;;;;;4997339;28;20175;-79
2022/01/19 09:56:43;;;;;;;5.68;5.18;;;8.60;99.90;;;;;;4997606;28;20190;-80
2022/01/19 09:59:13;;;;;;;6.93;6.33;;;8.60;99.90;;;;;;4999459;28;20518;-79
2022/01/19 10:01:53;;;;;;;5.72;5.22;;;8.60;99.90;;;;;;5000114;28;20613;-79
2022/01/19 10:04:26;;;;;;;6.00;5.50;;;8.60;99.90;;;;;;4997481;28;20546;-79
2022/01/19 10:07:16;;;;;;;7.15;6.55;;;8.60;99.90;;;;;;5009184;28;20593;-79
2022/01/19 10:10:01;;;;;;;8.40;5.70;;;8.60;99.90;;;;;;4992830;28;20178;-79
2022/01/19 10:18:25;;;;;;;6.85;6.25;;;8.60;99.90;;;;;;5007642;28;20206;-79
2022/01/19 10:21:16;;;;;;;6.38;5.88;;;8.60;99.90;;;;;;4992024;28;20195;-79
2022/01/19 10:23:41;;;;;;;6.60;5.95;;;8.60;99.90;;;;;;4992342;28;20181;-79
2022/01/19 10:26:10;;;;;;;7.00;6.40;;;8.50;99.90;;;;;;4991846;28;20609;-80
2022/01/19 10:29:01;;;;;;;9.25;7.53;;;8.50;99.90;;;;;;4975148;28;20205;-80
2022/01/19 10:31:28;;;;;;;7.63;6.93;;;8.50;99.90;;;;;;4983402;28;20250;-79
2022/01/19 10:34:17;;;;;;;8.82;7.32;;;8.50;99.90;;;;;;4990761;28;20689;-79
2022/01/19 10:36:49;;;;;;;8.10;7.40;;;8.50;99.90;;;;;;4990641;28;20222;-79
2022/01/19 10:39:17;;;;;;;8.68;7.82;;;8.50;99.90;;;;;;4991191;28;20521;-80
2022/01/19 10:42:11;;;;;;;8.68;7.88;;;8.60;99.90;;;;;;4990306;28;20632;-80
2022/01/19 10:44:40;;;;;;;7.80;7.00;;;8.50;99.90;;;;;;4992214;28;20268;-79
2022/01/19 10:47:07;;;;;;;8.48;7.38;;;8.50;99.90;;;;;;4992652;28;20171;-79
2022/01/19 10:49:52;;;;;;;9.25;8.45;;;8.50;99.90;;;;;;4998932;28;20175;-79
2022/01/19 10:52:40;;;;;;;8.90;8.10;;;8.50;99.90;;;;;;4990869;28;20214;-79
2022/01/19 10:55:08;;;;;;;7.45;6.70;;;8.50;99.90;;;;;;4976035;28;20254;-79
2022/01/19 10:57:37;;;;;;;8.55;7.75;;;8.50;99.90;;;;;;4974617;28;20203;-80
2022/01/19 11:00:10;;;;;;;8.63;7.65;;;8.50;99.90;;;;;;4974432;28;20174;-80
2022/01/19 11:02:37;;;;;;;8.20;7.50;;;8.50;99.90;;;;;;4974750;28;20746;-80
2022/01/19 11:05:04;;;;;;;10.45;8.80;;;8.50;99.90;;;;;;4974740;28;20164;-80
2022/01/19 11:07:29;;;;;;;7.93;7.32;;;8.60;99.90;;;;;;4974655;28;20176;-79
2022/01/19 11:10:18;;;;;;;8.53;7.17;;;8.60;99.90;;;;;;4957914;28;20226;-80
2022/01/19 11:12:48;;;;;;;8.77;7.40;;;8.60;99.90;;;;;;4974896;28;20592;-80
2022/01/19 11:15:18;;;;;;;7.65;5.97;;;8.70;99.90;;;;;;4976128;28;20167;-80
2022/01/19 11:17:45;;;;;;;6.82;6.22;;;8.70;99.90;;;;;;4975134;28;20530;-80
2022/01/19 11:20:18;;;;;;;6.78;6.05;;;8.70;99.90;;;;;;4958047;28;20250;-80
2022/01/19 11:23:06;;;;;;;7.43;6.20;;;8.80;99.90;;;;;;4987315;28;20853;-80
2022/01/19 11:25:38;;;;;;;7.20;6.50;;;8.80;99.90;;;;;;4998448;28;20171;-80
2022/01/19 11:28:04;;;;;;;6.80;6.20;;;8.80;99.90;;;;;;4995246;28;20533;-79
2022/01/19 11:30:34;;;;;;;6.93;6.35;;;8.80;99.90;;;;;;4993241;28;20218;-79
2022/01/19 11:33:16;;;;;;;7.20;6.50;;;8.80;99.90;;;;;;4993632;28;20271;-79
2022/01/19 11:35:47;;;;;;;6.30;5.80;;;8.80;99.90;;;;;;4994893;28;20175;-79
2022/01/19 11:38:31;;;;;;;6.75;6.25;;;8.90;99.90;;;;;;4993525;28;20241;-80
2022/01/19 11:41:18;;;;;;;5.75;5.25;;;8.90;99.90;;;;;;4994633;28;20197;-79
2022/01/19 11:43:55;;;;;;;6.18;5.65;;;8.90;99.90;;;;;;4987932;28;20210;-78
2022/01/19 11:46:49;;;;;;;6.90;6.30;;;8.90;99.90;;;;;;4993063;28;20217;-78
2022/01/19 11:49:37;;;;;;;7.45;6.80;;;8.90;99.90;;;;;;4993236;28;20205;-78
2022/01/19 11:52:04;;;;;;;8.32;6.40;;;9.00;99.90;;;;;;4989357;28;20199;-79
2022/01/19 11:54:33;;;;;;;7.10;6.40;;;9.00;99.90;;;;;;4975074;28;20194;-78
2022/01/19 11:56:58;;;;;;;6.18;5.68;;;9.00;99.90;;;;;;4973665;28;20180;-79
2022/01/19 11:59:53;;;;;;;6.27;5.80;;;9.00;99.90;;;;;;4973999;28;20718;-78
2022/01/19 12:02:33;;;;;;;7.88;7.00;;;9.00;99.90;;;;;;4958579;28;20529;-78
2022/01/19 12:04:58;;;;;;;6.75;6.25;;;9.00;99.90;;;;;;4975703;28;20175;-78
2022/01/19 12:07:35;;;;;;;7.47;6.57;;;9.00;99.90;;;;;;4973304;28;20262;-79
2022/01/19 12:10:03;;;;;;;7.18;6.50;;;8.90;99.90;;;;;;4974522;28;20176;-79
2022/01/19 12:12:34;;;;;;;7.82;7.22;;;8.90;99.90;;;;;;4974452;28;20537;-78
2022/01/19 12:15:05;;;;;;;6.35;5.75;;;8.90;99.90;;;;;;4973528;28;20168;-78
2022/01/19 12:17:56;;;;;;;6.78;6.18;;;8.90;99.90;;;;;;4974343;28;20205;-78
2022/01/19 12:20:51;;;;;;;7.38;6.50;;;8.90;99.90;;;;;;4989214;28;20694;-78
2022/01/19 12:23:29;;;;;;;7.97;7.03;;;8.90;99.90;;;;;;4989054;28;20631;-78
2022/01/19 12:25:56;;;;;;;7.85;7.25;;;8.90;99.90;;;;;;4993658;28;20193;-78
2022/01/19 12:28:42;;;;;;;8.23;7.35;;;8.80;99.90;;;;;;4992322;28;20182;-79
2022/01/19 12:31:31;;;;;;;9.65;6.85;;;8.80;99.90;;;;;;4997118;28;20214;-79
2022/01/19 12:34:03;;;;;;;6.53;5.93;;;8.80;99.90;;;;;;5004912;28;20178;-78
2022/01/19 12:36:56;;;;;;;8.82;8.02;;;8.80;99.90;;;;;;4999896;28;20666;-79
2022/01/19 12:39:24;;;;;;;8.75;7.95;;;8.70;99.90;;;;;;4977323;28;20247;-78
2022/01/19 12:41:59;;;;;;;7.10;6.45;;;8.70;99.90;;;;;;4973704;28;20227;-78
2022/01/19 12:44:34;;;;;;;7.40;6.70;;;8.70;99.90;;;;;;4972686;28;20171;-79
2022/01/19 12:47:05;;;;;;;8.35;7.50;;;8.70;99.90;;;;;;4973634;28;20199;-78
2022/01/19 12:49:32;;;;;;;8.48;7.70;;;8.70;99.90;;;;;;4956165;28;20219;-78
2022/01/19 12:51:59;;;;;;;9.07;8.18;;;8.70;99.90;;;;;;4977336;28;20211;-79
2022/01/19 12:54:30;;;;;;;9.02;8.15;;;8.70;99.90;;;;;;4973002;28;20187;-79
2022/01/19 12:57:02;;;;;;;8.85;8.05;;;8.60;99.90;;;;;;4973368;28;20179;-79
2022/01/19 12:59:28;;;;;;;8.70;6.78;;;8.60;99.90;;;;;;4973033;28;20170;-78
2022/01/19 13:01:55;;;;;;;8.73;7.50;;;8.70;99.90;;;;;;4971461;28;20573;-79
2022/01/19 13:04:29;;;;;;;9.50;8.55;;;8.60;99.90;;;;;;4987935;28;20172;-79
2022/01/19 13:06:56;;;;;;;10.02;9.02;;;8.60;99.90;;;;;;4971901;28;20206;-79
2022/01/19 13:09:34;;;;;;;11.80;8.73;;;8.60;99.90;;;;;;4987658;28;20242;-79
2022/01/19 13:12:11;;;;;;;11.80;8.15;;;8.60;99.90;;;;;;4988553;28;20229;-79
2022/01/19 13:14:37;;;;;;;8.32;7.55;;;8.60;99.90;;;;;;4989954;28;20178;-79
2022/01/19 13:17:03;;;;;;;8.00;7.27;;;8.50;99.90;;;;;;5007852;28;20181;-79
2022/01/19 13:19:29;;;;;;;9.10;8.20;;;8.50;99.90;;;;;;5000310;28;20258;-79
2022/01/19 13:22:06;;;;;;;8.80;7.90;;;8.50;99.90;;;;;;4993463;28;20708;-79
2022/01/19 13:24:34;;;;;;;15.13;9.68;;;8.50;99.90;;;;;;5011707;28;20911;-79
2022/01/19 13:27:07;;;;;;;12.38;8.80;;;8.50;99.90;;;;;;5002758;28;20751;-78
2022/01/19 13:29:39;;;;;;;9.95;9.00;;;8.50;99.90;;;;;;5003879;28;20224;-80
2022/01/19 13:32:12;;;;;;;11.85;10.65;;;8.50;99.90;;;;;;5000982;28;20282;-79
2022/01/19 13:35:04;;;;;;;9.90;8.38;;;8.50;99.90;;;;;;5000275;28;20183;-79
2022/01/19 13:37:37;;;;;;;10.88;9.82;;;8.50;99.90;;;;;;4993512;28;20249;-79
2022/01/19 13:40:09;;;;;;;10.18;9.27;;;8.50;99.90;;;;;;5002135;28;20171;-79
2022/01/19 13:42:42;;;;;;;11.20;9.98;;;8.50;99.90;;;;;;4994700;28;20167;-79
2022/01/19 13:48:09;;;;;;;10.20;9.13;;;8.50;99.90;;;;;;4992363;28;20657;-79
2022/01/19 13:50:36;;;;;;;10.52;9.50;;;8.50;99.90;;;;;;4990185;28;20214;-79
2022/01/19 13:53:02;;;;;;;9.48;7.97;;;8.50;99.90;;;;;;4988211;28;20176;-79
2022/01/19 13:55:29;;;;;;;11.50;9.80;;;8.50;99.90;;;;;;4977920;28;20223;-79
2022/01/19 13:58:12;;;;;;;9.27;8.48;;;8.50;99.90;;;;;;4982243;28;20230;-79
2022/01/19 14:00:56;;;;;;;11.95;9.82;;;8.50;99.90;;;;;;4987302;28;20599;-78
2022/01/19 14:03:24;;;;;;;13.52;10.43;;;8.50;99.90;;;;;;4992351;28;20181;-76
2022/01/19 14:05:55;;;;;;;14.45;11.40;;;8.50;99.90;;;;;;4973466;28;20536;-77
2022/01/19 14:08:47;;;;;;;13.48;11.52;;;8.50;99.90;;;;;;4990826;28;20190;-77
2022/01/19 14:11:32;;;;;;;11.32;10.13;;;8.50;99.90;;;;;;5004600;28;20211;-76
2022/01/19 14:14:07;;;;;;;11.10;9.15;;;8.50;99.90;;;;;;4992254;28;20599;-77
2022/01/19 14:16:38;;;;;;;10.77;9.52;;;8.40;99.90;;;;;;4992327;28;20180;-77
2022/01/19 14:19:13;;;;;;;10.18;9.15;;;8.40;99.90;;;;;;4992689;28;20203;-77
2022/01/19 14:22:04;;;;;;;11.25;10.00;;;8.40;99.90;;;;;;4992892;28;20550;-77
2022/01/19 14:25:06;;;;;;;11.75;10.40;;;8.40;99.90;;;;;;4996094;28;20167;-80
2022/01/19 14:27:39;;;;;;;12.82;9.85;;;8.40;99.90;;;;;;4994873;28;20178;-80
2022/01/19 14:30:14;;;;;;;11.35;10.10;;;8.40;99.90;;;;;;4994481;28;20179;-80
2022/01/19 14:33:03;;;;;;;11.95;10.75;;;8.40;99.90;;;;;;4999397;28;20776;-79
2022/01/19 14:35:38;;;;;;;15.57;13.97;;;8.40;99.90;;;;;;4994246;28;20802;-80
2022/01/19 14:38:32;;;;;;;13.43;12.07;;;8.30;99.90;;;;;;4994752;28;21157;-80
2022/01/19 14:41:09;;;;;;;12.43;11.02;;;8.30;99.90;;;;;;4995722;28;20555;-80
2022/01/19 14:43:42;;;;;;;11.98;10.55;;;8.40;99.90;;;;;;4978461;28;20186;-81
2022/01/19 14:46:11;;;;;;;10.40;9.30;;;8.40;99.90;;;;;;4994446;28;20171;-80
2022/01/19 14:48:44;;;;;;;13.13;10.45;;;8.40;99.90;;;;;;4994563;28;20486;-81
2022/01/19 14:51:18;;;;;;;10.77;9.68;;;8.40;99.90;;;;;;4995128;28;20213;-81
2022/01/19 14:53:44;;;;;;;12.70;10.60;;;8.40;99.90;;;;;;4994470;28;20545;-81
2022/01/19 14:56:10;;;;;;;13.07;9.83;;;8.40;99.90;;;;;;4995506;28;20173;-82
2022/01/19 14:58:36;;;;;;;11.57;10.40;;;8.40;99.90;;;;;;4994080;28;20629;-81